Armstrong, Missouri
Current Conditions -  °F | °C
As of 11:55 AM on Wednesday 28 Jan 2015 (Local Time) from KVER Reporting Station
Clear Clear  
Wind Chill: 12°   Ceiling: Unl
Heat Index: 12°   Visibility: 10mi
Dew Point:   Wind: 15mph
Humidity: 47%   Direction: 160°SSE
Pressure: 29.98"   Gusts: 23mph
Location:  39.27°N, 92.7°W
Report Text: KVER 281755Z AUTO 16013G20KT 10SM CLR 12/01 A2998 RMK AO2 T01220011 10156 21144
Loading
Personal Weather Stations






























Interactive Weather Map New forecast layout! Learn more

10-Day Weather Forecast

Advertisements
Track Severe Weather on mobile